Skip to main content.
Our real time weather data display below is updated continuously via our 24/7 live data feed.
 TIME   TEMPERATURE   WINDSPEED   DIRECTION   HUMIDITY   BAROMETER   RAINFALL 
9:40 23.0°C (73.4°F) 18.5 kmh (11.5 mph) ENE 78% 1017.9hPa (30.06 inHg) 0.0mm (0.00 in.)
8:40 22.0°C (71.6 °F) 14.8 kmh (9.2 mph) ENE 78% 1016.9hPa (30.03 inHg) 0.0mm (0.00 in.)
7:40 22.0°C (71.6 °F) 18.5 kmh (11.5 mph) ENE 83% 1015.9hPa (30.00 inHg) 0.0mm (0.00 in.)
6:40 22.0°C (71.6 °F) 18.5 kmh (11.5 mph) ENE 83% 1015.9hPa (30.00 inHg) 0.0mm (0.00 in.)
5:40 22.0°C (71.6 °F) 16.7 kmh (10.4 mph) ENE 83% 1015.9hPa (30.00 inHg) 0.0mm (0.00 in.)
4:40 22.0°C (71.6 °F) 24.1 kmh (15.0 mph) ENE 88% 1014.9hPa (29.97 inHg) 0.0mm (0.00 in.)
3:40 22.0°C (71.6 °F) 20.4 kmh (12.7 mph) ENE 88% 1015.9hPa (30.00 inHg) 0.0mm (0.00 in.)
2:40 22.0°C (71.6 °F) 22.2 kmh (13.8 mph) ENE 88% 1015.9hPa (30.00 inHg) 0.0mm (0.00 in.)
1:40 22.0°C (71.6 °F) 18.5 kmh (11.5 mph) NE 88% 1014.9hPa (29.97 inHg) 0.0mm (0.00 in.)
12:40 22.0°C (71.6 °F) 13.0 kmh (8.1 mph) ENE 83% 1014.9hPa (29.97 inHg) 0.0mm (0.00 in.)
11:40 21.0°C (69.8 °F) 11.1 kmh (6.9 mph) NE 82% 1014.9hPa (29.97 inHg) 0.0mm (0.00 in.)
10:40 21.0°C (69.8 °F) 7.4 kmh (4.6 mph) ENE 82% 1014.9hPa (29.97 inHg) 0.0mm (0.00 in.)
9:40 21.0°C (69.8 °F) 9.3 kmh (5.8 mph) NE 82% 1014.9hPa (29.97 inHg) 0.0mm (0.00 in.)
8:40 21.0°C (69.8 °F) 9.3 kmh (5.8 mph) ENE 77% 1013.9hPa (29.94 inHg) 0.0mm (0.00 in.)
7:40 21.0°C (69.8 °F) 11.1 kmh (6.9 mph) ENE 82% 1013.9hPa (29.94 inHg) 0.0mm (0.00 in.)
6:40 22.0°C (71.6 °F) 14.8 kmh (9.2 mph) ENE 73% 1012.9hPa (29.91 inHg) 0.0mm (0.00 in.)
5:40 22.0°C (71.6 °F) 16.7 kmh (10.4 mph) ENE 78% 1012.9hPa (29.91 inHg) 0.0mm (0.00 in.)
4:40 23.0°C (73.4 °F) 11.1 kmh (6.9 mph) ENE 73% 1012.9hPa (29.91 inHg) 0.0mm (0.00 in.)
3:40 23.0°C (73.4 °F) 16.7 kmh (10.4 mph) ENE 73% 1011.9hPa (29.88 inHg) 0.0mm (0.00 in.)
2:40 23.0°C (73.4 °F) 16.7 kmh (10.4 mph) ENE 73% 1011.9hPa (29.88 inHg) 0.0mm (0.00 in.)
1:40 23.0°C (73.4 °F) 14.8 kmh (9.2 mph) NE 73% 1012.9hPa (29.91 inHg) 0.0mm (0.00 in.)
12:40 23.0°C (73.4 °F) 13.0 kmh (8.1 mph) ENE 78% 1012.9hPa (29.91 inHg) 0.0mm (0.00 in.)
11:40 23.0°C (73.4 °F) 13.0 kmh (8.1 mph) ENE 78% 1011.9hPa (29.88 inHg) 0.0mm (0.00 in.)
10:40 23.0°C (73.4 °F) 13.0 kmh (8.1 mph) E 78% 1011.9hPa (29.88 inHg) 0.0mm (0.00 in.)